Time;durP1;ratioP1;P1;durP2;ratioP2;P2;SDS_P1;SDS_P2;PMS_P1;PMS_P2;Temp;Humidity;BMP_temperature;BMP_pressure;BME280_temperature;BME280_humidity;BME280_pressure;Samples;Min_cycle;Max_cycle;Signal;HPM_P1;HPM_P2
2024/01/16 00:01:23;;;;;;;14.20;5.75;;;;;;;-4.59;100.00;100888.72;5021401;28;20040;-74
2024/01/16 00:03:49;;;;;;;13.50;6.70;;;;;;;-4.55;100.00;100886.78;5021395;28;20099;-74
2024/01/16 00:06:15;;;;;;;16.52;6.18;;;;;;;-4.58;100.00;100885.16;5021282;28;20094;-74
2024/01/16 00:08:40;;;;;;;15.07;6.13;;;;;;;-4.67;100.00;100880.38;5021175;28;20119;-74
2024/01/16 00:11:06;;;;;;;17.05;6.30;;;;;;;-4.69;100.00;100874.34;5037657;28;20037;-74
2024/01/16 00:13:33;;;;;;;10.23;5.35;;;;;;;-4.70;100.00;100876.13;5020933;28;20094;-74
2024/01/16 00:15:58;;;;;;;12.52;4.53;;;;;;;-4.77;100.00;100864.25;5053977;28;20040;-74
2024/01/16 00:18:24;;;;;;;10.48;5.30;;;;;;;-4.89;100.00;100875.34;5021077;28;20033;-74
2024/01/16 00:20:50;;;;;;;11.43;5.28;;;;;;;-4.96;100.00;100868.69;5020996;28;20086;-74
2024/01/16 00:23:16;;;;;;;10.90;5.18;;;;;;;-4.95;100.00;100863.38;5037441;28;20497;-74
2024/01/16 00:25:41;;;;;;;12.25;6.47;;;;;;;-4.90;100.00;100863.13;5020772;28;20033;-74
2024/01/16 00:28:07;;;;;;;15.35;5.25;;;;;;;-4.83;100.00;100859.31;5036938;28;20037;-74
2024/01/16 00:30:33;;;;;;;11.95;4.40;;;;;;;-4.91;100.00;100853.59;5020867;28;20167;-74
2024/01/16 00:32:59;;;;;;;11.57;5.55;;;;;;;-5.03;100.00;100855.00;5054288;28;20036;-74
2024/01/16 00:35:25;;;;;;;10.15;4.40;;;;;;;-5.02;100.00;100840.16;5020703;28;20383;-74
2024/01/16 00:37:52;;;;;;;8.55;4.60;;;;;;;-5.04;100.00;100849.84;5020679;28;20037;-74
2024/01/16 00:40:18;;;;;;;11.63;7.22;;;;;;;-4.99;100.00;100843.47;5037260;28;20039;-74
2024/01/16 00:42:44;;;;;;;8.10;5.15;;;;;;;-4.85;100.00;100848.03;5021015;28;20041;-74
2024/01/16 00:45:09;;;;;;;10.20;4.88;;;;;;;-4.79;100.00;100845.13;5020562;28;20102;-74
2024/01/16 00:47:35;;;;;;;8.95;4.95;;;;;;;-4.74;100.00;100834.38;5020978;28;20028;-74
2024/01/16 00:50:02;;;;;;;9.57;5.20;;;;;;;-4.75;100.00;100828.28;5020178;28;20025;-74
2024/01/16 00:52:27;;;;;;;10.68;5.20;;;;;;;-4.81;100.00;100825.16;5020858;28;20072;-74
2024/01/16 00:54:53;;;;;;;11.48;4.88;;;;;;;-4.89;100.00;100815.03;5036608;28;20481;-74
2024/01/16 00:57:19;;;;;;;7.07;4.25;;;;;;;-4.89;100.00;100818.50;5020289;28;20071;-74
2024/01/16 00:59:46;;;;;;;8.60;4.97;;;;;;;-4.90;100.00;100808.06;5020346;28;20036;-74
2024/01/16 01:02:12;;;;;;;7.90;4.68;;;;;;;-4.98;100.00;100803.19;5036921;28;20360;-74
2024/01/16 01:04:38;;;;;;;6.47;4.25;;;;;;;-5.10;100.00;100807.28;5020781;28;20037;-74
2024/01/16 01:07:04;;;;;;;6.95;4.72;;;;;;;-5.23;100.00;100797.47;5020136;28;20437;-74
2024/01/16 01:09:32;;;;;;;10.23;4.03;;;;;;;-5.21;100.00;100803.47;5019829;28;20025;-74
2024/01/16 01:11:58;;;;;;;7.05;3.88;;;;;;;-5.23;100.00;100794.84;5004293;28;20106;-74
2024/01/16 01:14:25;;;;;;;9.85;5.20;;;;;;;-5.36;100.00;100777.09;5020100;28;20426;-74
2024/01/16 01:16:52;;;;;;;8.82;4.20;;;;;;;-5.29;100.00;100790.75;5036437;28;20444;-74
2024/01/16 01:19:18;;;;;;;8.13;4.50;;;;;;;-5.38;100.00;100778.06;5019992;28;20067;-74
2024/01/16 01:21:43;;;;;;;10.60;4.30;;;;;;;-5.52;100.00;100773.50;5019880;28;20068;-74
2024/01/16 01:24:09;;;;;;;8.15;4.32;;;;;;;-5.65;100.00;100769.75;5019792;28;20064;-74
2024/01/16 01:26:35;;;;;;;6.65;4.35;;;;;;;-5.57;100.00;100765.84;5019795;28;20040;-74
2024/01/16 01:29:01;;;;;;;7.55;4.57;;;;;;;-5.45;100.00;100761.81;5052572;28;20107;-74
2024/01/16 01:31:28;;;;;;;7.40;4.68;;;;;;;-5.35;100.00;100763.03;5036120;28;20036;-74
2024/01/16 01:33:54;;;;;;;7.07;4.78;;;;;;;-5.32;100.00;100764.66;5020020;28;20190;-74
2024/01/16 01:36:19;;;;;;;7.55;3.85;;;;;;;-5.36;100.00;100757.91;5052384;28;20076;-74
2024/01/16 01:38:45;;;;;;;5.35;3.70;;;;;;;-5.49;100.00;100755.00;5036195;28;20044;-74
2024/01/16 01:41:14;;;;;;;7.25;4.05;;;;;;;-5.57;100.00;100747.50;5020039;28;20068;-74
2024/01/16 01:43:39;;;;;;;7.68;4.75;;;;;;;-5.50;100.00;100757.69;5036316;28;20041;-74
2024/01/16 01:46:10;;;;;;;13.63;5.40;;;;;;;-5.44;100.00;100753.03;5019667;28;20392;-74
2024/01/16 01:48:41;;;;;;;12.75;6.15;;;;;;;-5.37;100.00;100750.94;5052112;28;20111;-74
2024/01/16 01:51:08;;;;;;;10.35;5.40;;;;;;;-5.35;100.00;100754.34;5035902;28;20025;-74
2024/01/16 01:53:35;;;;;;;7.43;4.50;;;;;;;-5.37;100.00;100745.69;5003250;28;20032;-74
2024/01/16 01:56:05;;;;;;;11.93;5.32;;;;;;;-5.47;100.00;100747.94;5036022;28;20037;-74
2024/01/16 01:58:33;;;;;;;9.20;4.68;;;;;;;-5.44;100.00;100746.94;5052334;28;20032;-74
2024/01/16 02:01:00;;;;;;;13.13;5.03;;;;;;;-5.54;100.00;100736.03;5052455;28;20044;-74
2024/01/16 02:03:27;;;;;;;9.95;5.60;;;;;;;-5.57;100.00;100738.81;5052195;28;20040;-74
2024/01/16 02:05:53;;;;;;;10.88;5.45;;;;;;;-5.54;100.00;100728.19;5052326;28;20039;-74
2024/01/16 02:08:19;;;;;;;13.50;6.85;;;;;;;-5.29;100.00;100725.22;5019973;28;20037;-73
2024/01/16 02:10:46;;;;;;;8.27;5.05;;;;;;;-5.22;100.00;100720.53;5023366;28;20040;-74
2024/01/16 02:13:12;;;;;;;14.85;5.55;;;;;;;-5.19;100.00;100730.84;5007084;28;20036;-73
2024/01/16 02:15:41;;;;;;;11.15;6.07;;;;;;;-5.18;100.00;100727.31;5039844;28;20044;-73
2024/01/16 02:18:07;;;;;;;10.50;5.75;;;;;;;-5.14;100.00;100728.84;5023736;28;20493;-74
2024/01/16 02:20:33;;;;;;;9.30;4.85;;;;;;;-5.21;100.00;100722.22;5039572;28;20539;-73
2024/01/16 02:23:03;;;;;;;8.93;5.13;;;;;;;-5.35;100.00;100715.88;5006949;28;20040;-73
2024/01/16 02:25:30;;;;;;;7.22;3.90;;;;;;;-5.45;100.00;100716.41;5023285;28;20033;-73
2024/01/16 02:28:08;;;;;;;10.88;6.05;;;;;;;-5.63;100.00;100699.81;5022831;28;20552;-73
2024/01/16 02:30:37;;;;;;;7.93;3.78;;;;;;;-5.67;100.00;100711.34;5026749;28;20048;-73
2024/01/16 02:33:24;;;;;;;12.88;4.85;;;;;;;-5.68;100.00;100702.66;5039385;28;20131;-73
2024/01/16 02:35:58;;;;;;;8.80;5.05;;;;;;;-5.68;100.00;100704.44;5028750;28;20036;-73
2024/01/16 02:38:24;;;;;;;10.85;5.72;;;;;;;-5.69;100.00;100710.56;5039483;28;20041;-73
2024/01/16 02:40:50;;;;;;;7.38;4.65;;;;;;;-5.79;100.00;100711.03;5022725;28;20067;-73
2024/01/16 02:43:16;;;;;;;10.13;5.20;;;;;;;-5.92;100.00;100704.69;5039509;28;20094;-73
2024/01/16 02:45:42;;;;;;;6.85;4.15;;;;;;;-5.90;100.00;100712.44;5022941;28;20467;-73
2024/01/16 02:48:08;;;;;;;8.35;4.53;;;;;;;-5.91;100.00;100703.75;5039312;28;20033;-73
2024/01/16 02:50:34;;;;;;;9.20;5.18;;;;;;;-5.94;100.00;100700.47;5055763;28;19920;-73
2024/01/16 02:53:00;;;;;;;8.02;4.25;;;;;;;-6.00;100.00;100697.22;5023589;28;20037;-74
2024/01/16 02:55:25;;;;;;;12.18;5.78;;;;;;;-5.94;100.00;100690.84;5039207;28;20460;-74
2024/01/16 02:57:51;;;;;;;11.70;4.78;;;;;;;-5.89;100.00;100691.44;5022662;28;20186;-74
2024/01/16 03:00:17;;;;;;;10.45;5.38;;;;;;;-5.75;100.00;100688.16;5023215;28;20037;-74
2024/01/16 03:02:44;;;;;;;13.32;6.55;;;;;;;-5.64;100.00;100693.72;5038953;28;20410;-74
2024/01/16 03:05:12;;;;;;;9.07;5.18;;;;;;;-5.55;100.00;100687.19;5039308;28;20437;-74
2024/01/16 03:07:38;;;;;;;12.38;5.30;;;;;;;-5.55;100.00;100680.19;5038970;28;20119;-74
2024/01/16 03:10:04;;;;;;;10.30;5.35;;;;;;;-5.57;100.00;100675.94;5038997;28;20033;-74
2024/01/16 03:12:31;;;;;;;11.20;6.82;;;;;;;-5.67;100.00;100669.44;5022953;28;20036;-74
2024/01/16 03:14:57;;;;;;;7.75;4.72;;;;;;;-5.66;100.00;100663.28;5038904;28;20119;-74
2024/01/16 03:17:22;;;;;;;13.70;5.95;;;;;;;-5.71;100.00;100660.06;5022393;28;20594;-74
2024/01/16 03:19:48;;;;;;;11.32;5.82;;;;;;;-5.71;100.00;100660.91;5021470;28;20040;-75
2024/01/16 03:22:14;;;;;;;11.38;5.32;;;;;;;-5.73;100.00;100656.66;5022058;28;20365;-75
2024/01/16 03:24:40;;;;;;;12.25;6.22;;;;;;;-5.65;100.00;100649.28;5038563;28;20033;-75
2024/01/16 03:27:06;;;;;;;13.00;7.22;;;;;;;-5.68;100.00;100650.28;5038773;28;20032;-75
2024/01/16 03:29:33;;;;;;;10.30;5.10;;;;;;;-5.81;100.00;100644.78;5021836;28;20040;-75
2024/01/16 03:31:59;;;;;;;10.30;5.10;;;;;;;-5.92;100.00;100652.31;5039264;28;20033;-75
2024/01/16 03:34:25;;;;;;;8.27;4.45;;;;;;;-6.03;100.00;100644.16;5021652;28;20040;-75
2024/01/16 03:36:50;;;;;;;11.57;4.07;;;;;;;-6.13;100.00;100637.66;5038501;28;20384;-75
2024/01/16 03:39:17;;;;;;;6.85;4.32;;;;;;;-6.17;100.00;100636.09;5038328;28;20033;-75
2024/01/16 03:41:42;;;;;;;11.27;6.00;;;;;;;-6.22;100.00;100634.56;5038983;28;20048;-75
2024/01/16 03:44:08;;;;;;;7.72;4.25;;;;;;;-6.15;100.00;100639.50;5021847;28;20418;-75
2024/01/16 03:46:34;;;;;;;9.70;4.95;;;;;;;-6.10;100.00;100629.66;5021581;28;20120;-75
2024/01/16 03:48:59;;;;;;;9.73;4.68;;;;;;;-6.12;100.00;100631.50;5038050;28;20052;-75
2024/01/16 03:51:25;;;;;;;9.50;4.78;;;;;;;-6.24;100.00;100627.69;5021702;28;20036;-75
2024/01/16 03:53:50;;;;;;;10.05;5.35;;;;;;;-6.18;100.00;100623.94;5021675;28;20033;-75
2024/01/16 03:56:16;;;;;;;7.68;4.60;;;;;;;-6.15;100.00;100621.19;5021256;28;20036;-75
2024/01/16 03:58:42;;;;;;;7.30;4.95;;;;;;;-6.21;100.00;100620.53;5037963;28;20092;-75
2024/01/16 04:01:09;;;;;;;8.27;4.75;;;;;;;-6.28;100.00;100618.28;5037935;28;20040;-75
2024/01/16 04:03:38;;;;;;;10.95;6.20;;;;;;;-6.26;100.00;100622.53;5038220;28;20047;-75
2024/01/16 04:06:14;;;;;;;6.88;4.45;;;;;;;-6.23;100.00;100616.31;5038429;28;20013;-75
2024/01/16 04:08:40;;;;;;;10.52;5.80;;;;;;;-6.18;100.00;100616.09;5037866;28;20047;-75
2024/01/16 04:11:11;;;;;;;9.45;4.43;;;;;;;-6.15;100.00;100615.94;5038074;28;20111;-75
2024/01/16 04:13:37;;;;;;;13.35;6.53;;;;;;;-6.19;100.00;100615.25;5021052;28;20032;-75
2024/01/16 04:16:03;;;;;;;8.13;4.63;;;;;;;-6.23;100.00;100609.28;5054350;28;20059;-75
2024/01/16 04:18:28;;;;;;;16.15;6.38;;;;;;;-6.25;100.00;100605.88;5021409;28;20064;-75
2024/01/16 04:20:54;;;;;;;9.30;5.57;;;;;;;-6.24;100.00;100599.75;5021117;28;20045;-75
2024/01/16 04:23:20;;;;;;;14.35;5.57;;;;;;;-6.14;100.00;100604.53;5021208;28;20045;-75
2024/01/16 04:25:46;;;;;;;12.20;5.85;;;;;;;-6.10;100.00;100601.72;5020966;28;20544;-75
2024/01/16 04:28:11;;;;;;;8.20;4.97;;;;;;;-6.21;100.00;100598.78;5021007;28;20044;-75
2024/01/16 04:30:37;;;;;;;6.82;4.30;;;;;;;-6.37;100.00;100593.41;5020430;28;20029;-75
2024/01/16 04:33:03;;;;;;;15.60;6.90;;;;;;;-6.41;100.00;100589.22;5020544;28;20087;-75
2024/01/16 04:35:29;;;;;;;13.48;4.35;;;;;;;-6.35;100.00;100588.09;5020818;28;20033;-75
2024/01/16 04:37:54;;;;;;;11.23;6.28;;;;;;;-6.12;100.00;100589.63;5020800;28;20044;-75
2024/01/16 04:40:20;;;;;;;11.75;5.28;;;;;;;-6.01;100.00;100579.47;5020767;28;20041;-75
2024/01/16 04:42:47;;;;;;;9.82;5.82;;;;;;;-6.06;100.00;100571.00;5037396;28;20476;-75
2024/01/16 04:45:13;;;;;;;11.00;5.50;;;;;;;-6.17;100.00;100568.06;5021287;28;20039;-75
2024/01/16 04:47:39;;;;;;;10.00;5.30;;;;;;;-6.33;100.00;100554.84;5020635;28;20456;-75
2024/01/16 04:50:05;;;;;;;13.70;5.82;;;;;;;-6.36;100.00;100550.63;5036289;28;20055;-75
2024/01/16 04:52:30;;;;;;;11.38;5.03;;;;;;;-6.31;100.00;100551.25;5020224;28;20047;-75
2024/01/16 04:54:56;;;;;;;10.55;5.93;;;;;;;-6.20;100.00;100538.47;5020559;28;20071;-75
2024/01/16 04:57:23;;;;;;;8.82;5.93;;;;;;;-6.14;100.00;100536.50;5020437;28;20391;-75
2024/01/16 04:59:48;;;;;;;12.45;5.53;;;;;;;-6.17;100.00;100531.41;5021401;28;20036;-75
2024/01/16 05:02:16;;;;;;;7.18;4.22;;;;;;;-6.25;100.00;100534.41;5037112;28;20380;-75
2024/01/16 05:04:42;;;;;;;10.23;4.63;;;;;;;-6.42;100.00;100533.44;5021258;28;20056;-76
2024/01/16 05:07:08;;;;;;;8.63;5.05;;;;;;;-6.57;100.00;100528.94;5003887;28;20459;-75
2024/01/16 05:09:34;;;;;;;8.13;4.60;;;;;;;-6.60;100.00;100525.63;5036914;28;20028;-75
2024/01/16 05:12:00;;;;;;;5.47;4.18;;;;;;;-6.61;100.00;100516.94;5021120;28;20225;-75
2024/01/16 05:14:26;;;;;;;8.70;4.32;;;;;;;-6.72;100.00;100514.84;5020065;28;20545;-75
2024/01/16 05:16:52;;;;;;;7.85;5.55;;;;;;;-6.72;100.00;100503.50;5036542;28;20033;-75
2024/01/16 05:19:18;;;;;;;12.35;6.57;;;;;;;-6.63;100.00;100503.94;5019759;28;20032;-75
2024/01/16 05:21:44;;;;;;;5.85;3.60;;;;;;;-6.59;100.00;100504.63;5036407;28;20051;-75
2024/01/16 05:24:09;;;;;;;10.50;5.70;;;;;;;-6.64;100.00;100499.63;5019999;28;20123;-75
2024/01/16 05:26:35;;;;;;;11.75;8.23;;;;;;;-6.65;100.00;100500.53;5036425;28;20037;-75
2024/01/16 05:29:16;;;;;;;18.70;10.15;;;;;;;-6.58;100.00;100502.88;5019752;28;20128;-75
2024/01/16 05:32:11;;;;;;;15.30;10.98;;;;;;;-6.63;100.00;100497.84;5020244;28;20057;-75
2024/01/16 05:35:18;;;;;;;27.42;13.10;;;;;;;-6.77;100.00;100475.00;5052282;28;20427;-75
2024/01/16 05:38:26;;;;;;;23.00;14.15;;;;;;;-6.66;100.00;100467.47;5038884;28;20032;-75
2024/01/16 05:42:12;;;;;;;18.30;12.02;;;;;;;-6.46;100.00;100461.25;5020855;28;20029;-75
2024/01/16 05:44:47;;;;;;;14.95;8.27;;;;;;;-6.30;100.00;100469.19;5047095;28;20071;-75
2024/01/16 05:47:48;;;;;;;13.65;7.53;;;;;;;-6.33;100.00;100451.03;5037133;28;20094;-75
2024/01/16 05:50:18;;;;;;;11.32;7.55;;;;;;;-6.21;100.00;100463.53;5021450;28;20468;-75
2024/01/16 05:52:43;;;;;;;17.05;6.38;;;;;;;-6.27;100.00;100461.22;5020020;28;20029;-75
2024/01/16 05:55:32;;;;;;;13.93;6.38;;;;;;;-6.29;100.00;100438.69;5020095;28;20044;-75
2024/01/16 05:58:04;;;;;;;10.00;6.63;;;;;;;-6.43;100.00;100421.03;5019717;28;20398;-75
2024/01/16 06:00:48;;;;;;;;;;;;;;;;;;;;;
2024/01/16 06:03:19;;;;;;;8.68;5.63;;;;;;;-6.40;100.00;100407.81;5035611;28;20041;-75
2024/01/16 06:06:04;;;;;;;14.45;8.23;;;;;;;-6.27;100.00;100432.44;5035862;28;20037;-75
2024/01/16 06:08:30;;;;;;;4.93;3.97;;;;;;;-6.25;100.00;100430.56;5052268;28;20072;-75
2024/01/16 06:10:56;;;;;;;10.73;5.60;;;;;;;-6.30;100.00;100427.34;5019487;28;20075;-75
2024/01/16 06:13:22;;;;;;;7.53;5.30;;;;;;;-6.36;100.00;100426.81;5019410;28;20041;-75
2024/01/16 06:15:48;;;;;;;7.78;4.30;;;;;;;-6.35;100.00;100424.13;5035987;28;20075;-75
2024/01/16 06:18:27;;;;;;;7.30;5.53;;;;;;;-6.37;100.00;100415.50;5035478;28;20445;-75
2024/01/16 06:21:14;;;;;;;13.80;6.50;;;;;;;-6.50;100.00;100422.28;5051628;28;20147;-75
2024/01/16 06:23:51;;;;;;;;;;;;;;;-6.64;100.00;100412.50;5036544;28;20036;-75
2024/01/16 06:26:36;;;;;;;10.25;3.88;;;;;;;-6.74;100.00;100406.84;5051851;28;19920;-75
2024/01/16 06:29:22;;;;;;;5.75;3.92;;;;;;;-6.57;100.00;100407.78;5038046;28;20041;-75
2024/01/16 06:31:47;;;;;;;8.38;4.85;;;;;;;-6.58;100.00;100409.56;5051758;28;20033;-75
2024/01/16 06:34:13;;;;;;;12.05;5.53;;;;;;;-6.60;100.00;100403.56;5035386;28;20039;-74
2024/01/16 06:36:39;;;;;;;12.13;5.93;;;;;;;-6.54;100.00;100400.63;5035580;28;20033;-75
2024/01/16 06:39:04;;;;;;;7.35;5.85;;;;;;;-6.61;100.00;100404.50;5019185;28;20175;-74
2024/01/16 06:41:30;;;;;;;7.43;5.65;;;;;;;-6.73;100.00;100405.09;5035556;28;20036;-75
2024/01/16 06:43:56;;;;;;;6.13;4.10;;;;;;;-6.89;100.00;100399.75;5019257;28;20045;-75
2024/01/16 06:46:21;;;;;;;6.05;4.10;;;;;;;-7.04;100.00;100397.84;5035550;28;20476;-74
2024/01/16 06:48:48;;;;;;;8.63;4.65;;;;;;;-7.10;100.00;100389.38;5035473;28;20037;-74
2024/01/16 06:51:15;;;;;;;8.50;4.80;;;;;;;-7.03;100.00;100386.50;5035442;28;20087;-74
2024/01/16 06:53:41;;;;;;;7.82;4.10;;;;;;;-7.06;100.00;100379.66;5018948;28;20120;-74
2024/01/16 06:56:08;;;;;;;11.85;4.88;;;;;;;-7.12;100.00;100374.69;5022349;28;20128;-75
2024/01/16 06:58:35;;;;;;;15.77;6.50;;;;;;;-7.08;100.00;100371.88;5039083;28;20044;-74
2024/01/16 07:01:01;;;;;;;7.70;4.07;;;;;;;-7.03;100.00;100378.66;5039299;28;20151;-74
2024/01/16 07:03:27;;;;;;;8.15;5.38;;;;;;;-6.97;100.00;100370.53;5022654;28;20131;-75
2024/01/16 07:05:52;;;;;;;8.65;5.50;;;;;;;-6.90;100.00;100375.38;5022559;28;20036;-75
2024/01/16 07:08:18;;;;;;;10.65;5.68;;;;;;;-6.88;100.00;100370.06;5022461;28;20095;-75
2024/01/16 07:10:44;;;;;;;12.48;6.82;;;;;;;-6.78;100.00;100367.84;5022159;28;20036;-75
2024/01/16 07:13:09;;;;;;;8.02;4.43;;;;;;;-6.71;100.00;100369.25;5038419;28;20032;-74
2024/01/16 07:15:35;;;;;;;13.90;7.07;;;;;;;-6.72;100.00;100365.81;5038677;28;20476;-75
2024/01/16 07:18:01;;;;;;;11.27;5.60;;;;;;;-6.74;100.00;100361.56;5022020;28;20487;-74
2024/01/16 07:20:26;;;;;;;10.23;5.15;;;;;;;-6.85;100.00;100354.25;5022236;28;20099;-75
2024/01/16 07:22:52;;;;;;;8.18;4.68;;;;;;;-6.95;100.00;100350.41;5022256;28;20025;-74
2024/01/16 07:25:46;;;;;;;13.05;6.32;;;;;;;-6.97;100.00;100360.91;5022203;28;20044;-74
2024/01/16 07:28:11;;;;;;;11.75;5.57;;;;;;;-7.01;100.00;100356.78;5055170;28;20024;-74
2024/01/16 07:30:37;;;;;;;9.18;4.70;;;;;;;-6.97;100.00;100357.47;5021701;28;20101;-74
2024/01/16 07:33:03;;;;;;;8.95;4.93;;;;;;;-6.88;100.00;100347.41;5038498;28;20036;-74
2024/01/16 07:35:29;;;;;;;14.35;6.00;;;;;;;-6.74;100.00;100349.34;5021907;28;20043;-75
2024/01/16 07:37:56;;;;;;;7.53;4.57;;;;;;;-6.74;100.00;100358.97;5038281;28;20045;-74
2024/01/16 07:40:23;;;;;;;7.07;5.32;;;;;;;-6.83;100.00;100359.38;5038253;28;20369;-75
2024/01/16 07:42:50;;;;;;;10.07;5.53;;;;;;;-6.81;100.00;100355.78;5038667;28;20043;-75
2024/01/16 07:45:27;;;;;;;4.03;3.58;;;;;;;-6.75;100.00;100350.25;5021843;28;20128;-75
2024/01/16 07:47:53;;;;;;;6.65;4.53;;;;;;;-6.63;100.00;100356.66;5022212;28;20025;-74
2024/01/16 07:50:19;;;;;;;7.55;4.40;;;;;;;-6.67;100.00;100353.34;5037954;28;20505;-74
2024/01/16 07:52:45;;;;;;;9.10;4.85;;;;;;;-6.78;100.00;100352.16;5021714;28;20041;-74
2024/01/16 07:55:11;;;;;;;7.20;4.22;;;;;;;-6.86;100.00;100358.63;5021627;28;20037;-74
2024/01/16 07:57:36;;;;;;;6.15;3.33;;;;;;;-7.02;100.00;100354.22;5021498;28;20041;-74
2024/01/16 08:00:03;;;;;;;11.48;7.00;;;;;;;-7.09;100.00;100351.06;5021452;28;20044;-74
2024/01/16 08:02:32;;;;;;;17.52;8.43;;;;;;;-7.01;100.00;100346.31;5021436;28;20463;-75
2024/01/16 08:04:59;;;;;;;13.52;8.23;;;;;;;-6.93;100.00;100345.91;5021487;28;20071;-74
2024/01/16 08:07:26;;;;;;;11.55;7.10;;;;;;;-6.94;100.00;100345.06;5020498;28;20079;-74
2024/01/16 08:09:52;;;;;;;9.23;5.10;;;;;;;-6.90;100.00;100351.03;5038058;28;20025;-75
2024/01/16 08:12:17;;;;;;;13.27;8.35;;;;;;;-6.88;100.00;100342.19;5037767;28;20391;-74
2024/01/16 08:14:44;;;;;;;10.05;4.93;;;;;;;-6.73;100.00;100337.09;5021213;28;20029;-74
2024/01/16 08:17:12;;;;;;;13.07;8.15;;;;;;;-6.61;100.00;100327.78;5037864;28;20037;-75
2024/01/16 08:19:38;;;;;;;18.20;10.18;;;;;;;-6.42;100.00;100328.56;5054496;28;20028;-74
2024/01/16 08:22:04;;;;;;;11.73;6.55;;;;;;;-6.38;100.00;100324.84;5020889;28;20033;-74
2024/01/16 08:24:30;;;;;;;16.45;8.65;;;;;;;-6.47;100.00;100318.34;5037524;28;20029;-75
2024/01/16 08:26:59;;;;;;;14.15;8.40;;;;;;;-6.57;100.00;100324.13;5020937;28;20178;-74
2024/01/16 08:29:25;;;;;;;10.93;7.38;;;;;;;-6.55;100.00;100324.88;5020768;28;20021;-74
2024/01/16 08:31:54;;;;;;;12.95;7.75;;;;;;;-6.64;100.00;100318.38;5037299;28;20399;-74
2024/01/16 08:34:19;;;;;;;11.20;6.75;;;;;;;-6.75;100.00;100313.63;5037195;28;20491;-74
2024/01/16 08:36:45;;;;;;;9.93;5.65;;;;;;;-6.89;100.00;100311.72;5020744;28;20064;-74
2024/01/16 08:39:11;;;;;;;12.50;7.22;;;;;;;-6.94;100.00;100318.09;5004432;28;20125;-74
2024/01/16 08:41:37;;;;;;;10.48;6.75;;;;;;;-6.91;100.00;100297.03;5020723;28;20072;-74
2024/01/16 08:44:03;;;;;;;15.63;8.38;;;;;;;-6.76;100.00;100298.03;5020683;28;20040;-74
2024/01/16 08:46:29;;;;;;;12.35;6.80;;;;;;;-6.62;100.00;100295.56;5020752;28;20031;-75
2024/01/16 08:48:55;;;;;;;10.48;7.03;;;;;;;-6.56;100.00;100291.78;5020477;28;20119;-75
2024/01/16 08:51:21;;;;;;;12.18;6.55;;;;;;;-6.60;100.00;100288.50;5053129;28;20090;-75
2024/01/16 08:53:47;;;;;;;7.90;5.68;;;;;;;-6.70;100.00;100288.09;5036968;28;20033;-75
2024/01/16 08:56:12;;;;;;;12.40;6.22;;;;;;;-6.75;100.00;100287.50;5036932;28;20487;-75
2024/01/16 08:58:38;;;;;;;9.63;4.88;;;;;;;-6.76;100.00;100293.66;5021051;28;20040;-75
2024/01/16 09:01:07;;;;;;;8.30;4.95;;;;;;;-6.81;100.00;100293.03;5020331;28;20361;-75
2024/01/16 09:03:34;;;;;;;14.93;5.03;;;;;;;-6.83;100.00;100292.25;5037152;28;20083;-74
2024/01/16 09:06:00;;;;;;;15.98;5.43;;;;;;;-6.85;100.00;100288.91;5036593;28;20525;-74
2024/01/16 09:08:29;;;;;;;8.55;4.25;;;;;;;-6.81;100.00;100274.75;5036409;28;20041;-74
2024/01/16 09:10:56;;;;;;;9.02;4.68;;;;;;;-6.65;100.00;100285.28;5020108;28;20025;-74
2024/01/16 09:13:23;;;;;;;4.72;3.33;;;;;;;-6.58;100.00;100278.81;5020979;28;20028;-75
2024/01/16 09:15:49;;;;;;;14.13;7.15;;;;;;;-6.44;100.00;100263.25;5036278;28;20041;-75
2024/01/16 09:18:15;;;;;;;7.78;4.40;;;;;;;-6.22;100.00;100259.50;5019996;28;20369;-75
2024/01/16 09:20:42;;;;;;;7.22;4.25;;;;;;;-6.06;100.00;100262.13;5036438;28;20510;-74
2024/01/16 09:23:08;;;;;;;8.50;4.35;;;;;;;-5.93;100.00;100257.09;5019870;28;20051;-75
2024/01/16 09:25:34;;;;;;;11.15;7.45;;;;;;;-5.83;100.00;100256.47;5019967;28;20025;-75
2024/01/16 09:28:00;;;;;;;12.32;7.43;;;;;;;-5.82;100.00;100252.94;5004201;28;20119;-75
2024/01/16 09:30:26;;;;;;;8.65;5.60;;;;;;;-5.83;100.00;100256.47;5035984;28;20037;-76
2024/01/16 09:32:52;;;;;;;24.83;14.40;;;;;;;-5.77;100.00;100256.16;5019717;28;20044;-76
2024/01/16 09:35:18;;;;;;;18.15;8.88;;;;;;;-5.65;100.00;100259.03;5035656;28;20048;-76
2024/01/16 09:37:43;;;;;;;14.63;8.13;;;;;;;-5.44;100.00;100255.19;5035920;28;20534;-76
2024/01/16 09:40:10;;;;;;;18.42;11.15;;;;;;;-5.33;100.00;100257.22;5019886;28;20025;-76
2024/01/16 09:42:37;;;;;;;29.60;14.75;;;;;;;-5.26;100.00;100248.09;5036236;28;20041;-76
2024/01/16 09:45:03;;;;;;;24.30;14.00;;;;;;;-5.37;100.00;100248.69;5019739;28;20032;-76
2024/01/16 09:47:33;;;;;;;18.45;10.90;;;;;;;-5.48;100.00;100253.66;5035898;28;20035;-76
2024/01/16 09:50:02;;;;;;;17.70;12.15;;;;;;;-5.54;100.00;100248.78;5020505;28;20575;-76
2024/01/16 09:52:28;;;;;;;21.00;12.85;;;;;;;-5.27;100.00;100245.53;5052242;28;20036;-76
2024/01/16 09:54:55;;;;;;;21.02;11.77;;;;;;;-4.58;100.00;100237.09;5052168;28;20375;-76
2024/01/16 09:57:25;;;;;;;21.88;13.13;;;;;;;-3.74;100.00;100238.09;5035717;28;20032;-76
2024/01/16 09:59:52;;;;;;;23.80;13.07;;;;;;;-3.01;100.00;100233.31;5035978;28;20491;-76
2024/01/16 10:02:18;;;;;;;21.88;11.73;;;;;;;-2.74;100.00;100233.25;5019415;28;20044;-76
2024/01/16 10:04:44;;;;;;;14.90;10.38;;;;;;;-2.67;100.00;100224.00;5019309;28;20033;-76
2024/01/16 10:07:12;;;;;;;18.70;9.80;;;;;;;-2.63;100.00;100229.88;5019388;28;20040;-76
2024/01/16 10:09:40;;;;;;;17.80;9.60;;;;;;;-2.63;100.00;100226.41;5019235;28;20126;-76
2024/01/16 10:12:06;;;;;;;19.70;10.55;;;;;;;-2.69;100.00;100230.31;5019354;28;20087;-76
2024/01/16 10:14:33;;;;;;;28.25;14.57;;;;;;;-2.77;100.00;100228.19;5035621;28;20128;-77
2024/01/16 10:17:05;;;;;;;22.30;12.52;;;;;;;-2.73;100.00;100221.75;5019365;28;20048;-76
2024/01/16 10:19:31;;;;;;;28.60;15.20;;;;;;;-2.53;100.00;100216.97;5052712;28;20555;-76
2024/01/16 10:22:06;;;;;;;22.67;12.68;;;;;;;-2.28;100.00;100223.97;5020114;28;20029;-76
2024/01/16 10:24:35;;;;;;;19.15;10.55;;;;;;;-2.16;100.00;100217.88;5019216;28;20045;-76
2024/01/16 10:27:03;;;;;;;20.50;12.02;;;;;;;-2.07;100.00;100216.38;5035958;28;20029;-76
2024/01/16 10:29:31;;;;;;;21.23;12.60;;;;;;;-1.89;100.00;100203.69;5036219;28;20029;-76
2024/01/16 10:31:57;;;;;;;25.17;12.40;;;;;;;-1.65;100.00;100196.66;5023219;28;20075;-76
2024/01/16 10:34:23;;;;;;;16.70;9.77;;;;;;;-1.35;100.00;100196.22;5022806;28;20048;-76
2024/01/16 10:36:52;;;;;;;14.93;8.80;;;;;;;-1.11;100.00;100183.00;5023239;28;20041;-76
2024/01/16 10:39:20;;;;;;;15.73;7.65;;;;;;;-1.05;100.00;100184.31;5056203;28;20118;-76
2024/01/16 10:41:54;;;;;;;15.15;9.82;;;;;;;-1.00;100.00;100187.47;5023102;28;20076;-76
2024/01/16 10:44:20;;;;;;;11.88;6.28;;;;;;;-0.97;100.00;100173.19;5039586;28;20037;-76
2024/01/16 10:46:46;;;;;;;6.05;3.90;;;;;;;-0.97;100.00;100163.47;5022891;28;20052;-76
2024/01/16 10:49:12;;;;;;;8.45;4.82;;;;;;;-0.93;100.00;100161.44;5022270;28;20032;-74
2024/01/16 10:51:39;;;;;;;10.23;5.88;;;;;;;-0.93;100.00;100157.03;5039198;28;20123;-74
2024/01/16 10:54:07;;;;;;;9.70;6.57;;;;;;;-0.76;100.00;100150.44;5038964;28;20037;-73
2024/01/16 10:56:34;;;;;;;10.52;5.22;;;;;;;-0.53;100.00;100150.44;5055395;28;20064;-74
2024/01/16 10:59:47;;;;;;;12.18;6.88;;;;;;;-0.32;100.00;100134.72;5056618;28;20036;-73
2024/01/16 11:02:15;;;;;;;12.60;6.78;;;;;;;-0.16;100.00;100135.19;4981424;28;20540;-74
2024/01/16 11:04:43;;;;;;;9.02;5.47;;;;;;;-0.01;100.00;100133.94;5033331;28;20049;-73
2024/01/16 11:07:08;;;;;;;10.57;6.40;;;;;;;0.04;100.00;100133.59;5038582;28;20483;-73
2024/01/16 11:09:34;;;;;;;14.82;6.90;;;;;;;0.03;100.00;100123.13;5038792;28;20029;-73
2024/01/16 11:12:01;;;;;;;5.88;5.30;;;;;;;0.05;100.00;100119.41;5039191;28;20141;-73
2024/01/16 11:14:27;;;;;;;11.98;8.35;;;;;;;0.36;100.00;100117.75;5022435;28;20391;-73
2024/01/16 11:16:53;;;;;;;13.00;9.73;;;;;;;0.37;100.00;100121.22;5022077;28;20383;-73
2024/01/16 11:19:19;;;;;;;18.83;12.77;;;;;;;0.37;100.00;100124.72;5038348;28;20036;-73